< < Back
Terminal Aerodrome Forecast


Current Version              Previous Versions:   1  2  3  4  5  6  7  8  9  

Terminal Aerodrome Forecast

952
FTUS42 KFFC 280528
TAFPDK
TAF
KPDK 280528Z 2806/2906 35004KT P6SM BKN250
     FM280800 03003KT P6SM BKN200
     FM281500 09008KT P6SM SCT050 BKN120
     FM282000 10007G15KT P6SM SCT025 BKN050 OVC100
     FM290000 05008KT P6SM VCSH BKN025
     FM290200 05010KT 5SM -RA BR OVC015=



Latest METAR

879
SAUS70 KWBC 281600 RRG
MTRPDK
METAR KPDK 281553Z VRB06KT 10SM CLR 19/04 A2995 RMK AO2 SLP137
T01890044


USA.gov is the U.S. government's official web portal to all federal, state and local government web resources and services.